sensor_id;sensor_type;location;lat;lon;timestamp;P1;durP1;ratioP1;P2;durP2;ratioP2
28822;SDS011;15961;54.678;9.110;2024-03-22T00:01:11;41.08;;;16.70;;
28822;SDS011;15961;54.678;9.110;2024-03-22T00:03:57;46.25;;;17.20;;
28822;SDS011;15961;54.678;9.110;2024-03-22T00:06:43;44.90;;;17.23;;
28822;SDS011;15961;54.678;9.110;2024-03-22T00:09:31;42.58;;;17.67;;
28822;SDS011;15961;54.678;9.110;2024-03-22T00:12:17;40.78;;;17.05;;
28822;SDS011;15961;54.678;9.110;2024-03-22T00:15:03;41.08;;;16.08;;
28822;SDS011;15961;54.678;9.110;2024-03-22T00:17:49;42.47;;;16.90;;
28822;SDS011;15961;54.678;9.110;2024-03-22T00:20:34;43.92;;;17.02;;
28822;SDS011;15961;54.678;9.110;2024-03-22T00:23:20;50.92;;;18.95;;
28822;SDS011;15961;54.678;9.110;2024-03-22T00:26:05;49.03;;;17.42;;
28822;SDS011;15961;54.678;9.110;2024-03-22T00:28:52;49.33;;;17.90;;
28822;SDS011;15961;54.678;9.110;2024-03-22T00:31:37;39.30;;;16.05;;
28822;SDS011;15961;54.678;9.110;2024-03-22T00:34:23;48.72;;;18.25;;
28822;SDS011;15961;54.678;9.110;2024-03-22T00:37:09;45.55;;;17.95;;
28822;SDS011;15961;54.678;9.110;2024-03-22T00:39:54;42.63;;;18.15;;
28822;SDS011;15961;54.678;9.110;2024-03-22T00:42:40;45.58;;;16.77;;
28822;SDS011;15961;54.678;9.110;2024-03-22T00:45:26;46.00;;;18.50;;
28822;SDS011;15961;54.678;9.110;2024-03-22T00:48:11;49.33;;;18.92;;
28822;SDS011;15961;54.678;9.110;2024-03-22T00:50:57;50.63;;;18.67;;
28822;SDS011;15961;54.678;9.110;2024-03-22T00:53:42;40.00;;;15.75;;
28822;SDS011;15961;54.678;9.110;2024-03-22T00:56:28;50.00;;;17.38;;
28822;SDS011;15961;54.678;9.110;2024-03-22T00:59:14;51.25;;;19.58;;
28822;SDS011;15961;54.678;9.110;2024-03-22T01:01:59;54.45;;;22.00;;
28822;SDS011;15961;54.678;9.110;2024-03-22T01:04:45;54.92;;;19.92;;
28822;SDS011;15961;54.678;9.110;2024-03-22T01:07:30;49.83;;;19.15;;
28822;SDS011;15961;54.678;9.110;2024-03-22T01:10:16;48.67;;;19.67;;
28822;SDS011;15961;54.678;9.110;2024-03-22T01:13:02;54.42;;;20.55;;
28822;SDS011;15961;54.678;9.110;2024-03-22T01:15:47;51.00;;;22.17;;
28822;SDS011;15961;54.678;9.110;2024-03-22T01:18:33;48.30;;;19.58;;
28822;SDS011;15961;54.678;9.110;2024-03-22T01:21:19;53.25;;;19.05;;
28822;SDS011;15961;54.678;9.110;2024-03-22T01:24:04;56.28;;;21.05;;
28822;SDS011;15961;54.678;9.110;2024-03-22T01:26:50;60.80;;;21.02;;
28822;SDS011;15961;54.678;9.110;2024-03-22T01:29:36;52.97;;;22.80;;
28822;SDS011;15961;54.678;9.110;2024-03-22T01:32:21;50.33;;;18.13;;
28822;SDS011;15961;54.678;9.110;2024-03-22T01:35:07;57.67;;;20.33;;
28822;SDS011;15961;54.678;9.110;2024-03-22T01:37:53;56.83;;;22.25;;
28822;SDS011;15961;54.678;9.110;2024-03-22T01:40:39;62.67;;;21.80;;
28822;SDS011;15961;54.678;9.110;2024-03-22T01:43:24;60.47;;;23.38;;
28822;SDS011;15961;54.678;9.110;2024-03-22T01:46:10;60.25;;;21.98;;
28822;SDS011;15961;54.678;9.110;2024-03-22T01:48:56;59.85;;;21.25;;
28822;SDS011;15961;54.678;9.110;2024-03-22T01:51:42;63.03;;;22.20;;
28822;SDS011;15961;54.678;9.110;2024-03-22T01:54:28;62.95;;;23.55;;
28822;SDS011;15961;54.678;9.110;2024-03-22T01:57:13;60.13;;;21.88;;
28822;SDS011;15961;54.678;9.110;2024-03-22T01:59:59;54.25;;;21.77;;
28822;SDS011;15961;54.678;9.110;2024-03-22T02:02:45;62.95;;;22.85;;
28822;SDS011;15961;54.678;9.110;2024-03-22T02:05:31;62.83;;;21.75;;
28822;SDS011;15961;54.678;9.110;2024-03-22T02:08:16;61.20;;;22.73;;
28822;SDS011;15961;54.678;9.110;2024-03-22T02:11:02;61.67;;;24.60;;
28822;SDS011;15961;54.678;9.110;2024-03-22T02:13:47;65.22;;;23.52;;
28822;SDS011;15961;54.678;9.110;2024-03-22T02:16:33;59.75;;;23.10;;
28822;SDS011;15961;54.678;9.110;2024-03-22T02:19:19;59.90;;;23.25;;
28822;SDS011;15961;54.678;9.110;2024-03-22T02:22:04;62.20;;;21.75;;
28822;SDS011;15961;54.678;9.110;2024-03-22T02:24:50;59.75;;;22.05;;
28822;SDS011;15961;54.678;9.110;2024-03-22T02:27:36;63.50;;;23.58;;
28822;SDS011;15961;54.678;9.110;2024-03-22T02:30:23;62.60;;;24.80;;
28822;SDS011;15961;54.678;9.110;2024-03-22T02:33:09;62.92;;;22.63;;
28822;SDS011;15961;54.678;9.110;2024-03-22T02:35:55;69.78;;;24.33;;
28822;SDS011;15961;54.678;9.110;2024-03-22T02:38:40;64.72;;;23.77;;
28822;SDS011;15961;54.678;9.110;2024-03-22T02:41:26;64.20;;;23.33;;
28822;SDS011;15961;54.678;9.110;2024-03-22T02:44:11;69.28;;;25.27;;
28822;SDS011;15961;54.678;9.110;2024-03-22T02:46:57;73.18;;;24.48;;
28822;SDS011;15961;54.678;9.110;2024-03-22T02:49:43;66.75;;;23.48;;
28822;SDS011;15961;54.678;9.110;2024-03-22T02:52:28;76.15;;;26.63;;
28822;SDS011;15961;54.678;9.110;2024-03-22T02:55:14;75.10;;;25.42;;
28822;SDS011;15961;54.678;9.110;2024-03-22T02:57:59;76.07;;;27.35;;
28822;SDS011;15961;54.678;9.110;2024-03-22T03:00:45;71.32;;;26.48;;
28822;SDS011;15961;54.678;9.110;2024-03-22T03:03:31;75.10;;;27.67;;
28822;SDS011;15961;54.678;9.110;2024-03-22T03:06:16;77.63;;;28.30;;
28822;SDS011;15961;54.678;9.110;2024-03-22T03:09:05;88.63;;;32.05;;
28822;SDS011;15961;54.678;9.110;2024-03-22T03:11:53;85.50;;;31.77;;
28822;SDS011;15961;54.678;9.110;2024-03-22T03:14:39;96.07;;;32.47;;
28822;SDS011;15961;54.678;9.110;2024-03-22T03:17:24;95.97;;;31.90;;
28822;SDS011;15961;54.678;9.110;2024-03-22T03:20:10;94.80;;;32.22;;
28822;SDS011;15961;54.678;9.110;2024-03-22T03:22:58;87.10;;;30.23;;
28822;SDS011;15961;54.678;9.110;2024-03-22T03:25:45;90.45;;;32.90;;
28822;SDS011;15961;54.678;9.110;2024-03-22T03:28:31;104.00;;;32.85;;
28822;SDS011;15961;54.678;9.110;2024-03-22T03:31:17;101.70;;;32.72;;
28822;SDS011;15961;54.678;9.110;2024-03-22T03:34:02;99.47;;;31.10;;
28822;SDS011;15961;54.678;9.110;2024-03-22T03:36:48;95.72;;;30.70;;
28822;SDS011;15961;54.678;9.110;2024-03-22T03:39:34;96.13;;;30.00;;
28822;SDS011;15961;54.678;9.110;2024-03-22T03:42:19;102.03;;;30.02;;
28822;SDS011;15961;54.678;9.110;2024-03-22T03:45:05;87.47;;;30.42;;
28822;SDS011;15961;54.678;9.110;2024-03-22T03:47:51;97.55;;;30.20;;
28822;SDS011;15961;54.678;9.110;2024-03-22T03:50:36;95.45;;;30.88;;
28822;SDS011;15961;54.678;9.110;2024-03-22T03:53:22;84.80;;;29.27;;
28822;SDS011;15961;54.678;9.110;2024-03-22T03:56:08;91.10;;;30.38;;
28822;SDS011;15961;54.678;9.110;2024-03-22T03:58:53;88.10;;;27.33;;
28822;SDS011;15961;54.678;9.110;2024-03-22T04:01:39;92.90;;;27.58;;
28822;SDS011;15961;54.678;9.110;2024-03-22T04:04:25;80.35;;;27.10;;
28822;SDS011;15961;54.678;9.110;2024-03-22T04:07:10;79.18;;;28.10;;
28822;SDS011;15961;54.678;9.110;2024-03-22T04:09:56;86.03;;;30.08;;
28822;SDS011;15961;54.678;9.110;2024-03-22T04:12:41;76.00;;;27.30;;
28822;SDS011;15961;54.678;9.110;2024-03-22T04:15:27;83.85;;;28.73;;
28822;SDS011;15961;54.678;9.110;2024-03-22T04:18:13;78.68;;;27.38;;
28822;SDS011;15961;54.678;9.110;2024-03-22T04:20:59;82.70;;;26.90;;
28822;SDS011;15961;54.678;9.110;2024-03-22T04:23:45;80.38;;;27.98;;
28822;SDS011;15961;54.678;9.110;2024-03-22T04:26:31;86.15;;;29.13;;
28822;SDS011;15961;54.678;9.110;2024-03-22T04:29:16;89.60;;;27.00;;
28822;SDS011;15961;54.678;9.110;2024-03-22T04:32:02;79.28;;;25.83;;
28822;SDS011;15961;54.678;9.110;2024-03-22T04:34:48;83.75;;;26.83;;
28822;SDS011;15961;54.678;9.110;2024-03-22T04:37:33;83.47;;;29.98;;
28822;SDS011;15961;54.678;9.110;2024-03-22T04:40:19;79.80;;;27.05;;
28822;SDS011;15961;54.678;9.110;2024-03-22T04:43:05;86.78;;;27.75;;
28822;SDS011;15961;54.678;9.110;2024-03-22T04:45:50;84.35;;;27.50;;
28822;SDS011;15961;54.678;9.110;2024-03-22T04:48:36;77.68;;;26.77;;
28822;SDS011;15961;54.678;9.110;2024-03-22T04:51:22;91.47;;;29.20;;
28822;SDS011;15961;54.678;9.110;2024-03-22T04:54:07;89.32;;;28.20;;
28822;SDS011;15961;54.678;9.110;2024-03-22T04:56:53;93.40;;;30.35;;
28822;SDS011;15961;54.678;9.110;2024-03-22T04:59:39;93.60;;;29.20;;
28822;SDS011;15961;54.678;9.110;2024-03-22T05:02:24;90.93;;;26.58;;
28822;SDS011;15961;54.678;9.110;2024-03-22T05:05:10;78.00;;;25.80;;
28822;SDS011;15961;54.678;9.110;2024-03-22T05:07:57;85.93;;;27.33;;
28822;SDS011;15961;54.678;9.110;2024-03-22T05:10:42;86.43;;;27.70;;
28822;SDS011;15961;54.678;9.110;2024-03-22T05:13:28;81.63;;;26.95;;
28822;SDS011;15961;54.678;9.110;2024-03-22T05:16:14;99.35;;;26.30;;
28822;SDS011;15961;54.678;9.110;2024-03-22T05:18:59;98.40;;;27.00;;
28822;SDS011;15961;54.678;9.110;2024-03-22T05:21:45;74.97;;;24.65;;
28822;SDS011;15961;54.678;9.110;2024-03-22T05:24:30;79.05;;;25.10;;
28822;SDS011;15961;54.678;9.110;2024-03-22T05:27:19;89.82;;;25.98;;
28822;SDS011;15961;54.678;9.110;2024-03-22T05:30:05;86.30;;;28.10;;
28822;SDS011;15961;54.678;9.110;2024-03-22T05:32:51;85.22;;;25.02;;
28822;SDS011;15961;54.678;9.110;2024-03-22T05:35:37;79.88;;;24.70;;
28822;SDS011;15961;54.678;9.110;2024-03-22T05:38:23;75.57;;;23.48;;
28822;SDS011;15961;54.678;9.110;2024-03-22T05:41:08;89.25;;;24.50;;
28822;SDS011;15961;54.678;9.110;2024-03-22T05:43:55;67.85;;;21.92;;
28822;SDS011;15961;54.678;9.110;2024-03-22T05:46:40;83.70;;;23.83;;
28822;SDS011;15961;54.678;9.110;2024-03-22T05:49:26;88.50;;;23.55;;
28822;SDS011;15961;54.678;9.110;2024-03-22T05:52:12;85.18;;;23.02;;
28822;SDS011;15961;54.678;9.110;2024-03-22T05:54:57;87.38;;;21.48;;
28822;SDS011;15961;54.678;9.110;2024-03-22T05:57:43;72.13;;;23.67;;
28822;SDS011;15961;54.678;9.110;2024-03-22T06:00:28;73.88;;;21.52;;
28822;SDS011;15961;54.678;9.110;2024-03-22T06:03:15;70.60;;;22.48;;
28822;SDS011;15961;54.678;9.110;2024-03-22T06:06:01;75.18;;;20.38;;
28822;SDS011;15961;54.678;9.110;2024-03-22T06:08:47;63.70;;;21.77;;
28822;SDS011;15961;54.678;9.110;2024-03-22T06:11:37;72.72;;;21.38;;
28822;SDS011;15961;54.678;9.110;2024-03-22T06:14:23;50.15;;;19.00;;
28822;SDS011;15961;54.678;9.110;2024-03-22T06:17:09;59.33;;;18.48;;
28822;SDS011;15961;54.678;9.110;2024-03-22T06:19:55;53.35;;;17.10;;
28822;SDS011;15961;54.678;9.110;2024-03-22T06:22:41;61.33;;;17.55;;
28822;SDS011;15961;54.678;9.110;2024-03-22T06:25:26;55.95;;;17.10;;
28822;SDS011;15961;54.678;9.110;2024-03-22T06:28:12;56.70;;;17.15;;
28822;SDS011;15961;54.678;9.110;2024-03-22T06:30:58;58.55;;;15.82;;
28822;SDS011;15961;54.678;9.110;2024-03-22T06:33:43;57.33;;;16.88;;
28822;SDS011;15961;54.678;9.110;2024-03-22T06:36:30;55.28;;;15.85;;
28822;SDS011;15961;54.678;9.110;2024-03-22T06:39:17;51.38;;;15.52;;
28822;SDS011;15961;54.678;9.110;2024-03-22T06:42:03;51.10;;;14.82;;
28822;SDS011;15961;54.678;9.110;2024-03-22T06:44:48;40.50;;;14.13;;
28822;SDS011;15961;54.678;9.110;2024-03-22T06:47:34;54.50;;;14.68;;
28822;SDS011;15961;54.678;9.110;2024-03-22T06:50:20;48.05;;;14.45;;
28822;SDS011;15961;54.678;9.110;2024-03-22T06:53:09;45.58;;;15.65;;
28822;SDS011;15961;54.678;9.110;2024-03-22T06:55:58;55.80;;;13.55;;
28822;SDS011;15961;54.678;9.110;2024-03-22T06:58:44;38.83;;;13.00;;
28822;SDS011;15961;54.678;9.110;2024-03-22T07:01:29;39.58;;;12.77;;
28822;SDS011;15961;54.678;9.110;2024-03-22T07:04:15;38.67;;;13.52;;
28822;SDS011;15961;54.678;9.110;2024-03-22T07:07:01;36.42;;;12.18;;
28822;SDS011;15961;54.678;9.110;2024-03-22T07:09:46;40.17;;;11.43;;
28822;SDS011;15961;54.678;9.110;2024-03-22T07:12:33;37.45;;;10.35;;
28822;SDS011;15961;54.678;9.110;2024-03-22T07:15:18;39.47;;;10.82;;
28822;SDS011;15961;54.678;9.110;2024-03-22T07:18:04;30.98;;;10.73;;
28822;SDS011;15961;54.678;9.110;2024-03-22T07:20:50;29.13;;;10.48;;
28822;SDS011;15961;54.678;9.110;2024-03-22T07:23:36;28.45;;;9.57;;
28822;SDS011;15961;54.678;9.110;2024-03-22T07:26:21;32.28;;;10.50;;
28822;SDS011;15961;54.678;9.110;2024-03-22T07:29:07;30.63;;;10.10;;
28822;SDS011;15961;54.678;9.110;2024-03-22T07:31:53;31.40;;;10.60;;
28822;SDS011;15961;54.678;9.110;2024-03-22T07:34:38;27.95;;;9.40;;
28822;SDS011;15961;54.678;9.110;2024-03-22T07:37:24;35.97;;;11.20;;
28822;SDS011;15961;54.678;9.110;2024-03-22T07:40:10;24.98;;;9.93;;
28822;SDS011;15961;54.678;9.110;2024-03-22T07:42:57;32.53;;;10.30;;
28822;SDS011;15961;54.678;9.110;2024-03-22T07:45:44;23.75;;;8.65;;
28822;SDS011;15961;54.678;9.110;2024-03-22T07:48:30;24.77;;;10.48;;
28822;SDS011;15961;54.678;9.110;2024-03-22T07:51:15;30.90;;;9.25;;
28822;SDS011;15961;54.678;9.110;2024-03-22T07:54:01;31.33;;;8.45;;
28822;SDS011;15961;54.678;9.110;2024-03-22T07:56:47;33.65;;;11.35;;
28822;SDS011;15961;54.678;9.110;2024-03-22T07:59:33;27.55;;;9.73;;
28822;SDS011;15961;54.678;9.110;2024-03-22T08:02:19;30.13;;;10.13;;
28822;SDS011;15961;54.678;9.110;2024-03-22T08:05:06;28.30;;;10.10;;
28822;SDS011;15961;54.678;9.110;2024-03-22T08:07:51;23.17;;;9.10;;
28822;SDS011;15961;54.678;9.110;2024-03-22T08:10:37;28.63;;;8.60;;
28822;SDS011;15961;54.678;9.110;2024-03-22T08:13:23;28.17;;;9.18;;
28822;SDS011;15961;54.678;9.110;2024-03-22T08:16:08;24.83;;;8.63;;
28822;SDS011;15961;54.678;9.110;2024-03-22T08:18:54;26.05;;;8.20;;
28822;SDS011;15961;54.678;9.110;2024-03-22T08:21:40;22.30;;;8.27;;
28822;SDS011;15961;54.678;9.110;2024-03-22T08:24:25;22.05;;;8.27;;
28822;SDS011;15961;54.678;9.110;2024-03-22T08:27:11;19.88;;;8.38;;
28822;SDS011;15961;54.678;9.110;2024-03-22T08:29:57;25.08;;;9.00;;
28822;SDS011;15961;54.678;9.110;2024-03-22T08:32:42;19.30;;;7.93;;
28822;SDS011;15961;54.678;9.110;2024-03-22T08:35:28;26.02;;;8.90;;
28822;SDS011;15961;54.678;9.110;2024-03-22T08:38:14;23.60;;;8.68;;
28822;SDS011;15961;54.678;9.110;2024-03-22T08:41:00;32.22;;;9.57;;
28822;SDS011;15961;54.678;9.110;2024-03-22T08:43:46;28.52;;;9.23;;
28822;SDS011;15961;54.678;9.110;2024-03-22T08:46:31;23.33;;;9.57;;
28822;SDS011;15961;54.678;9.110;2024-03-22T08:49:17;30.58;;;9.55;;
28822;SDS011;15961;54.678;9.110;2024-03-22T08:52:04;31.65;;;9.43;;
28822;SDS011;15961;54.678;9.110;2024-03-22T08:54:50;28.98;;;11.25;;
28822;SDS011;15961;54.678;9.110;2024-03-22T08:57:36;26.05;;;9.73;;
28822;SDS011;15961;54.678;9.110;2024-03-22T09:00:22;30.42;;;10.18;;
28822;SDS011;15961;54.678;9.110;2024-03-22T09:03:07;29.10;;;10.90;;
28822;SDS011;15961;54.678;9.110;2024-03-22T09:05:53;32.20;;;13.27;;
28822;SDS011;15961;54.678;9.110;2024-03-22T09:08:39;23.38;;;9.90;;
28822;SDS011;15961;54.678;9.110;2024-03-22T09:11:24;24.40;;;8.98;;
28822;SDS011;15961;54.678;9.110;2024-03-22T09:14:10;29.50;;;9.73;;
28822;SDS011;15961;54.678;9.110;2024-03-22T09:16:57;31.27;;;8.95;;
28822;SDS011;15961;54.678;9.110;2024-03-22T09:19:42;21.88;;;8.60;;
28822;SDS011;15961;54.678;9.110;2024-03-22T09:22:28;22.23;;;9.13;;
28822;SDS011;15961;54.678;9.110;2024-03-22T09:25:13;22.30;;;8.15;;
28822;SDS011;15961;54.678;9.110;2024-03-22T09:27:59;26.23;;;9.13;;
28822;SDS011;15961;54.678;9.110;2024-03-22T09:30:45;19.40;;;7.60;;
28822;SDS011;15961;54.678;9.110;2024-03-22T09:33:31;22.98;;;7.88;;
28822;SDS011;15961;54.678;9.110;2024-03-22T09:36:17;21.92;;;8.63;;
28822;SDS011;15961;54.678;9.110;2024-03-22T09:39:03;25.20;;;8.48;;
28822;SDS011;15961;54.678;9.110;2024-03-22T09:41:50;22.92;;;7.20;;
28822;SDS011;15961;54.678;9.110;2024-03-22T09:44:36;27.10;;;8.75;;
28822;SDS011;15961;54.678;9.110;2024-03-22T09:47:22;22.00;;;7.25;;
28822;SDS011;15961;54.678;9.110;2024-03-22T09:50:09;15.20;;;7.60;;
28822;SDS011;15961;54.678;9.110;2024-03-22T09:52:56;16.42;;;7.28;;
28822;SDS011;15961;54.678;9.110;2024-03-22T09:55:41;16.90;;;5.82;;
28822;SDS011;15961;54.678;9.110;2024-03-22T09:58:29;15.85;;;7.65;;
28822;SDS011;15961;54.678;9.110;2024-03-22T10:01:14;14.77;;;6.65;;
28822;SDS011;15961;54.678;9.110;2024-03-22T10:04:01;12.35;;;6.35;;
28822;SDS011;15961;54.678;9.110;2024-03-22T10:06:47;12.38;;;6.00;;
28822;SDS011;15961;54.678;9.110;2024-03-22T10:09:33;13.65;;;5.90;;
28822;SDS011;15961;54.678;9.110;2024-03-22T10:12:18;10.77;;;5.90;;
28822;SDS011;15961;54.678;9.110;2024-03-22T10:15:06;36.72;;;21.55;;
28822;SDS011;15961;54.678;9.110;2024-03-22T10:17:53;27.70;;;12.15;;
28822;SDS011;15961;54.678;9.110;2024-03-22T10:20:41;24.05;;;13.48;;
28822;SDS011;15961;54.678;9.110;2024-03-22T10:23:27;127.50;;;47.25;;
28822;SDS011;15961;54.678;9.110;2024-03-22T10:26:14;90.00;;;30.73;;
28822;SDS011;15961;54.678;9.110;2024-03-22T10:28:59;44.38;;;18.15;;
28822;SDS011;15961;54.678;9.110;2024-03-22T10:31:45;37.40;;;12.80;;
28822;SDS011;15961;54.678;9.110;2024-03-22T10:34:31;36.17;;;13.43;;
28822;SDS011;15961;54.678;9.110;2024-03-22T10:37:16;26.30;;;16.50;;
28822;SDS011;15961;54.678;9.110;2024-03-22T10:40:02;29.95;;;13.45;;
28822;SDS011;15961;54.678;9.110;2024-03-22T10:42:54;30.27;;;11.77;;
28822;SDS011;15961;54.678;9.110;2024-03-22T10:45:41;88.60;;;35.70;;
28822;SDS011;15961;54.678;9.110;2024-03-22T10:48:30;26.25;;;12.10;;
28822;SDS011;15961;54.678;9.110;2024-03-22T10:51:16;25.45;;;13.60;;
28822;SDS011;15961;54.678;9.110;2024-03-22T10:54:02;32.10;;;14.65;;
28822;SDS011;15961;54.678;9.110;2024-03-22T10:56:49;33.38;;;11.35;;
28822;SDS011;15961;54.678;9.110;2024-03-22T10:59:35;31.83;;;11.48;;
28822;SDS011;15961;54.678;9.110;2024-03-22T11:02:23;33.53;;;15.35;;
28822;SDS011;15961;54.678;9.110;2024-03-22T11:05:16;23.67;;;8.93;;
28822;SDS011;15961;54.678;9.110;2024-03-22T11:08:05;57.70;;;26.08;;
28822;SDS011;15961;54.678;9.110;2024-03-22T11:10:51;19.25;;;7.00;;
28822;SDS011;15961;54.678;9.110;2024-03-22T11:13:38;28.17;;;8.35;;
28822;SDS011;15961;54.678;9.110;2024-03-22T11:16:24;16.60;;;5.75;;
28822;SDS011;15961;54.678;9.110;2024-03-22T11:19:10;20.40;;;6.20;;
28822;SDS011;15961;54.678;9.110;2024-03-22T11:21:56;19.88;;;5.40;;
28822;SDS011;15961;54.678;9.110;2024-03-22T11:24:41;18.73;;;6.43;;
28822;SDS011;15961;54.678;9.110;2024-03-22T11:27:27;15.07;;;6.80;;
28822;SDS011;15961;54.678;9.110;2024-03-22T11:30:12;19.83;;;6.28;;
28822;SDS011;15961;54.678;9.110;2024-03-22T11:33:01;27.17;;;7.85;;
28822;SDS011;15961;54.678;9.110;2024-03-22T11:35:48;21.52;;;8.05;;
28822;SDS011;15961;54.678;9.110;2024-03-22T11:38:35;27.40;;;7.30;;
28822;SDS011;15961;54.678;9.110;2024-03-22T11:41:25;21.90;;;6.10;;
28822;SDS011;15961;54.678;9.110;2024-03-22T11:44:12;17.27;;;5.57;;
28822;SDS011;15961;54.678;9.110;2024-03-22T11:46:58;13.07;;;5.60;;
28822;SDS011;15961;54.678;9.110;2024-03-22T11:49:43;17.67;;;5.53;;
28822;SDS011;15961;54.678;9.110;2024-03-22T11:52:29;21.30;;;6.22;;
28822;SDS011;15961;54.678;9.110;2024-03-22T11:55:15;34.33;;;8.23;;
28822;SDS011;15961;54.678;9.110;2024-03-22T11:58:00;27.73;;;7.97;;
28822;SDS011;15961;54.678;9.110;2024-03-22T12:00:46;19.40;;;5.65;;
28822;SDS011;15961;54.678;9.110;2024-03-22T12:03:32;23.63;;;6.70;;
28822;SDS011;15961;54.678;9.110;2024-03-22T12:06:17;14.75;;;4.68;;
28822;SDS011;15961;54.678;9.110;2024-03-22T12:09:03;22.30;;;7.45;;
28822;SDS011;15961;54.678;9.110;2024-03-22T12:11:49;25.15;;;5.68;;
28822;SDS011;15961;54.678;9.110;2024-03-22T12:14:35;18.52;;;6.20;;
28822;SDS011;15961;54.678;9.110;2024-03-22T12:17:20;23.80;;;6.20;;
28822;SDS011;15961;54.678;9.110;2024-03-22T12:20:08;16.63;;;4.93;;
28822;SDS011;15961;54.678;9.110;2024-03-22T12:22:54;27.88;;;6.97;;
28822;SDS011;15961;54.678;9.110;2024-03-22T12:25:40;23.70;;;6.72;;
28822;SDS011;15961;54.678;9.110;2024-03-22T12:28:25;28.65;;;7.85;;
28822;SDS011;15961;54.678;9.110;2024-03-22T12:31:11;20.55;;;5.85;;
28822;SDS011;15961;54.678;9.110;2024-03-22T12:33:57;18.05;;;6.57;;
28822;SDS011;15961;54.678;9.110;2024-03-22T12:36:42;31.15;;;6.47;;
28822;SDS011;15961;54.678;9.110;2024-03-22T12:39:28;26.10;;;7.47;;
28822;SDS011;15961;54.678;9.110;2024-03-22T12:42:14;24.30;;;6.93;;
28822;SDS011;15961;54.678;9.110;2024-03-22T12:45:00;19.48;;;6.35;;
28822;SDS011;15961;54.678;9.110;2024-03-22T12:47:45;26.95;;;6.35;;
28822;SDS011;15961;54.678;9.110;2024-03-22T12:50:31;31.25;;;6.80;;
28822;SDS011;15961;54.678;9.110;2024-03-22T12:53:17;21.25;;;6.60;;
28822;SDS011;15961;54.678;9.110;2024-03-22T12:56:03;35.00;;;6.00;;
28822;SDS011;15961;54.678;9.110;2024-03-22T12:58:49;31.63;;;7.82;;
28822;SDS011;15961;54.678;9.110;2024-03-22T13:01:35;26.50;;;6.15;;
28822;SDS011;15961;54.678;9.110;2024-03-22T13:04:22;26.60;;;6.07;;
28822;SDS011;15961;54.678;9.110;2024-03-22T13:07:08;52.15;;;16.67;;
28822;SDS011;15961;54.678;9.110;2024-03-22T13:09:54;49.20;;;14.13;;
28822;SDS011;15961;54.678;9.110;2024-03-22T13:12:40;41.03;;;13.60;;
28822;SDS011;15961;54.678;9.110;2024-03-22T13:15:26;35.35;;;11.27;;
28822;SDS011;15961;54.678;9.110;2024-03-22T13:18:11;42.92;;;10.05;;
28822;SDS011;15961;54.678;9.110;2024-03-22T13:20:57;65.13;;;15.85;;
28822;SDS011;15961;54.678;9.110;2024-03-22T13:23:43;36.97;;;9.82;;
28822;SDS011;15961;54.678;9.110;2024-03-22T13:26:28;99.28;;;24.23;;
28822;SDS011;15961;54.678;9.110;2024-03-22T13:29:14;49.15;;;14.18;;
28822;SDS011;15961;54.678;9.110;2024-03-22T13:32:00;114.20;;;26.35;;
28822;SDS011;15961;54.678;9.110;2024-03-22T13:34:46;44.60;;;13.82;;
28822;SDS011;15961;54.678;9.110;2024-03-22T13:37:31;27.80;;;6.25;;
28822;SDS011;15961;54.678;9.110;2024-03-22T13:40:17;21.77;;;5.97;;
28822;SDS011;15961;54.678;9.110;2024-03-22T13:43:02;36.22;;;9.52;;
28822;SDS011;15961;54.678;9.110;2024-03-22T13:45:50;30.85;;;8.77;;
28822;SDS011;15961;54.678;9.110;2024-03-22T13:48:39;19.83;;;6.90;;
28822;SDS011;15961;54.678;9.110;2024-03-22T13:51:24;21.88;;;5.50;;
28822;SDS011;15961;54.678;9.110;2024-03-22T13:54:13;24.67;;;5.93;;
28822;SDS011;15961;54.678;9.110;2024-03-22T13:56:59;26.83;;;6.68;;
28822;SDS011;15961;54.678;9.110;2024-03-22T13:59:45;24.27;;;5.53;;
28822;SDS011;15961;54.678;9.110;2024-03-22T14:02:32;23.48;;;6.10;;
28822;SDS011;15961;54.678;9.110;2024-03-22T14:05:18;27.52;;;5.70;;
28822;SDS011;15961;54.678;9.110;2024-03-22T14:08:04;24.05;;;6.00;;
28822;SDS011;15961;54.678;9.110;2024-03-22T14:10:50;25.15;;;4.90;;
28822;SDS011;15961;54.678;9.110;2024-03-22T14:13:35;26.13;;;6.20;;
28822;SDS011;15961;54.678;9.110;2024-03-22T14:16:21;29.38;;;7.07;;
28822;SDS011;15961;54.678;9.110;2024-03-22T14:19:07;16.83;;;6.38;;
28822;SDS011;15961;54.678;9.110;2024-03-22T14:21:54;22.55;;;4.55;;
28822;SDS011;15961;54.678;9.110;2024-03-22T14:24:39;33.35;;;6.75;;
28822;SDS011;15961;54.678;9.110;2024-03-22T14:27:25;23.00;;;5.75;;
28822;SDS011;15961;54.678;9.110;2024-03-22T14:30:11;23.23;;;5.47;;
28822;SDS011;15961;54.678;9.110;2024-03-22T14:32:58;19.50;;;4.28;;
28822;SDS011;15961;54.678;9.110;2024-03-22T14:35:43;29.88;;;4.60;;
28822;SDS011;15961;54.678;9.110;2024-03-22T14:38:29;19.85;;;4.28;;
28822;SDS011;15961;54.678;9.110;2024-03-22T14:41:15;24.42;;;4.15;;
28822;SDS011;15961;54.678;9.110;2024-03-22T14:44:01;13.65;;;3.80;;
28822;SDS011;15961;54.678;9.110;2024-03-22T14:46:46;17.33;;;5.32;;
28822;SDS011;15961;54.678;9.110;2024-03-22T14:49:32;28.75;;;3.92;;
28822;SDS011;15961;54.678;9.110;2024-03-22T14:52:18;16.77;;;3.83;;
28822;SDS011;15961;54.678;9.110;2024-03-22T14:55:03;22.52;;;4.85;;
28822;SDS011;15961;54.678;9.110;2024-03-22T14:57:49;25.55;;;5.03;;
28822;SDS011;15961;54.678;9.110;2024-03-22T15:00:35;20.65;;;4.25;;
28822;SDS011;15961;54.678;9.110;2024-03-22T15:03:20;22.98;;;4.80;;
28822;SDS011;15961;54.678;9.110;2024-03-22T15:06:07;21.02;;;4.78;;
28822;SDS011;15961;54.678;9.110;2024-03-22T15:08:53;22.10;;;4.65;;
28822;SDS011;15961;54.678;9.110;2024-03-22T15:11:38;18.88;;;4.03;;
28822;SDS011;15961;54.678;9.110;2024-03-22T15:14:27;23.05;;;4.93;;
28822;SDS011;15961;54.678;9.110;2024-03-22T15:17:16;27.48;;;4.82;;
28822;SDS011;15961;54.678;9.110;2024-03-22T15:20:07;31.00;;;3.83;;
28822;SDS011;15961;54.678;9.110;2024-03-22T15:22:57;26.80;;;4.63;;
28822;SDS011;15961;54.678;9.110;2024-03-22T15:25:43;22.52;;;4.50;;
28822;SDS011;15961;54.678;9.110;2024-03-22T15:28:28;27.65;;;5.03;;
28822;SDS011;15961;54.678;9.110;2024-03-22T15:31:14;21.13;;;3.72;;
28822;SDS011;15961;54.678;9.110;2024-03-22T15:33:59;25.15;;;3.75;;
28822;SDS011;15961;54.678;9.110;2024-03-22T15:36:45;33.03;;;4.38;;
28822;SDS011;15961;54.678;9.110;2024-03-22T15:39:31;21.83;;;4.18;;
28822;SDS011;15961;54.678;9.110;2024-03-22T15:42:17;31.88;;;5.20;;
28822;SDS011;15961;54.678;9.110;2024-03-22T15:45:03;21.02;;;3.67;;
28822;SDS011;15961;54.678;9.110;2024-03-22T15:47:50;25.52;;;4.88;;
28822;SDS011;15961;54.678;9.110;2024-03-22T15:50:36;31.50;;;5.47;;
28822;SDS011;15961;54.678;9.110;2024-03-22T15:53:22;24.45;;;3.90;;
28822;SDS011;15961;54.678;9.110;2024-03-22T15:56:07;18.02;;;4.72;;
28822;SDS011;15961;54.678;9.110;2024-03-22T15:58:53;27.90;;;5.82;;
28822;SDS011;15961;54.678;9.110;2024-03-22T16:01:39;27.52;;;4.75;;
28822;SDS011;15961;54.678;9.110;2024-03-22T16:04:24;30.27;;;5.55;;
28822;SDS011;15961;54.678;9.110;2024-03-22T16:07:10;30.50;;;4.15;;
28822;SDS011;15961;54.678;9.110;2024-03-22T16:09:56;23.83;;;4.97;;
28822;SDS011;15961;54.678;9.110;2024-03-22T16:12:42;26.92;;;3.80;;
28822;SDS011;15961;54.678;9.110;2024-03-22T16:15:28;26.02;;;5.78;;